Time;durP1;ratioP1;P1;durP2;ratioP2;P2;SDS_P1;SDS_P2;PMS_P1;PMS_P2;Temp;Humidity;BMP_temperature;BMP_pressure;BME280_temperature;BME280_humidity;BME280_pressure;Samples;Min_cycle;Max_cycle;Signal;HPM_P1;HPM_P2
2023/01/21 00:02:29;;;;;;;48.42;18.70;;;-0.90;99.90;;;;;;5049419;28;20044;-79
2023/01/21 00:05:15;;;;;;;43.55;19.40;;;-0.80;99.90;;;;;;5054746;28;20489;-81
2023/01/21 00:08:01;;;;;;;36.85;16.42;;;-0.80;99.90;;;;;;5032266;28;20049;-80
2023/01/21 00:10:47;;;;;;;42.42;18.23;;;-0.80;99.90;;;;;;5031729;28;20497;-83
2023/01/21 00:13:34;;;;;;;44.00;17.70;;;-0.70;99.90;;;;;;5050499;28;20492;-80
2023/01/21 00:16:20;;;;;;;42.53;17.52;;;-0.60;99.90;;;;;;5048984;28;20049;-80
2023/01/21 00:19:07;;;;;;;42.88;17.92;;;-0.60;99.90;;;;;;5031814;28;20052;-84
2023/01/21 00:21:53;;;;;;;39.58;18.90;;;-0.60;99.90;;;;;;5052949;28;20140;-78
2023/01/21 00:24:39;;;;;;;44.58;18.23;;;-0.50;99.90;;;;;;5031594;28;20053;-78
2023/01/21 00:27:25;;;;;;;46.08;19.73;;;-0.50;99.90;;;;;;5048956;28;20049;-84
2023/01/21 00:30:11;;;;;;;36.67;17.58;;;-0.50;99.90;;;;;;5031308;28;20436;-82
2023/01/21 00:32:57;;;;;;;39.83;17.23;;;-0.40;99.90;;;;;;5049990;28;20060;-78
2023/01/21 00:35:43;;;;;;;40.28;16.73;;;-0.40;99.90;;;;;;5050932;28;20140;-84
2023/01/21 00:38:30;;;;;;;33.35;15.90;;;-0.40;99.90;;;;;;5056604;28;20056;-80
2023/01/21 00:41:16;;;;;;;38.78;18.90;;;-0.40;99.90;;;;;;5051469;28;20049;-78
2023/01/21 00:44:03;;;;;;;37.08;17.58;;;-0.40;99.90;;;;;;5036217;28;20061;-81
2023/01/21 00:46:49;;;;;;;40.45;18.23;;;-0.40;99.90;;;;;;5036881;28;20195;-79
2023/01/21 00:49:36;;;;;;;44.95;18.15;;;-0.40;99.90;;;;;;5054867;28;20409;-79
2023/01/21 00:52:22;;;;;;;42.42;18.23;;;-0.40;99.90;;;;;;5058688;28;20072;-78
2023/01/21 00:55:08;;;;;;;41.63;18.63;;;-0.40;99.90;;;;;;5046126;28;20082;-81
2023/01/21 00:57:55;;;;;;;44.25;18.83;;;-0.50;99.90;;;;;;5062970;28;20048;-80
2023/01/21 01:00:41;;;;;;;43.55;19.73;;;-0.50;99.90;;;;;;5045250;28;20052;-79
2023/01/21 01:03:27;;;;;;;47.15;19.88;;;-0.50;99.90;;;;;;5029329;28;20056;-78
2023/01/21 01:06:20;;;;;;;48.55;20.38;;;-0.50;99.90;;;;;;5059150;28;20152;-78
2023/01/21 01:09:06;;;;;;;43.22;19.42;;;-0.50;99.90;;;;;;5058494;28;20049;-78
2023/01/21 01:11:52;;;;;;;42.17;18.60;;;-0.50;99.90;;;;;;5058172;28;20045;-81
2023/01/21 01:14:38;;;;;;;47.40;20.83;;;-0.40;99.90;;;;;;5059667;28;20045;-83
2023/01/21 01:17:25;;;;;;;42.80;18.50;;;-0.40;99.90;;;;;;5055582;28;20049;-79
2023/01/21 01:20:11;;;;;;;40.30;17.38;;;-0.40;99.90;;;;;;5052193;28;20067;-78
2023/01/21 01:22:57;;;;;;;49.53;20.58;;;-0.40;99.90;;;;;;5034419;28;20154;-78
2023/01/21 01:25:43;;;;;;;45.55;20.52;;;-0.40;99.90;;;;;;5052571;28;20057;-77
2023/01/21 01:28:31;;;;;;;39.55;18.55;;;-0.40;99.90;;;;;;5038486;28;20053;-77
2023/01/21 01:31:18;;;;;;;40.08;16.65;;;-0.40;99.90;;;;;;5036051;28;20061;-77
2023/01/21 01:34:04;;;;;;;38.80;17.35;;;-0.40;99.90;;;;;;5053144;28;20377;-78
2023/01/21 01:36:50;;;;;;;41.72;18.40;;;-0.40;99.90;;;;;;5039954;28;20064;-78
2023/01/21 01:39:36;;;;;;;41.17;16.30;;;-0.50;99.90;;;;;;5020576;28;20049;-78
2023/01/21 01:42:23;;;;;;;41.92;17.83;;;-0.50;99.90;;;;;;5052224;28;20049;-77
2023/01/21 01:45:15;;;;;;;35.92;16.33;;;-0.60;99.90;;;;;;5037271;28;20107;-77
2023/01/21 01:48:05;;;;;;;36.47;16.80;;;-0.60;99.90;;;;;;5037189;28;20096;-77
2023/01/21 01:50:51;;;;;;;41.28;16.98;;;-0.70;99.90;;;;;;5037346;28;20124;-78
2023/01/21 01:53:40;;;;;;;36.42;17.45;;;-0.70;99.90;;;;;;5058897;28;20084;-77
2023/01/21 01:56:29;;;;;;;45.70;18.20;;;-0.70;99.90;;;;;;5022448;28;20424;-78
2023/01/21 01:59:15;;;;;;;42.72;19.52;;;-0.70;99.90;;;;;;5019505;28;20056;-78
2023/01/21 02:02:07;;;;;;;43.75;17.77;;;-0.70;99.90;;;;;;5052617;28;20049;-77
2023/01/21 02:04:58;;;;;;;36.45;17.10;;;-0.70;99.90;;;;;;5052358;28;20049;-78
2023/01/21 02:07:45;;;;;;;40.80;17.88;;;-0.70;99.90;;;;;;5052477;28;20060;-77
2023/01/21 02:10:33;;;;;;;50.72;20.40;;;-0.60;99.90;;;;;;5053734;28;20122;-78
2023/01/21 02:13:19;;;;;;;56.95;21.15;;;-0.60;99.90;;;;;;5052412;28;20500;-79
2023/01/21 02:16:29;;;;;;;43.08;17.83;;;-0.60;99.90;;;;;;5052243;28;20079;-82
2023/01/21 02:19:44;;;;;;;37.33;16.00;;;-0.60;99.90;;;;;;5050594;28;20049;-78
2023/01/21 02:22:32;;;;;;;43.20;17.30;;;-0.60;99.90;;;;;;5037420;28;20045;-79
2023/01/21 02:25:36;;;;;;;38.70;16.15;;;-0.60;99.90;;;;;;5034410;28;20049;-78
2023/01/21 02:28:44;;;;;;;46.10;18.98;;;-0.60;99.90;;;;;;5040402;28;20049;-79
2023/01/21 02:31:48;;;;;;;45.33;18.10;;;-0.60;99.90;;;;;;5050143;28;20053;-81
2023/01/21 02:34:37;;;;;;;42.38;16.45;;;-0.60;99.90;;;;;;5051465;28;20044;-77
2023/01/21 02:37:37;;;;;;;50.38;19.25;;;-0.60;99.90;;;;;;5052071;28;20455;-77
2023/01/21 02:40:59;;;;;;;48.15;20.00;;;-0.60;99.90;;;;;;5052211;28;20045;-78
2023/01/21 02:43:52;;;;;;;51.03;18.45;;;-0.50;99.90;;;;;;5034468;28;20053;-79
2023/01/21 02:46:52;;;;;;;51.80;20.55;;;-0.50;99.90;;;;;;5057716;28;20071;-79
2023/01/21 02:49:48;;;;;;;46.80;18.52;;;-0.50;99.90;;;;;;5051805;28;20060;-82
2023/01/21 02:52:33;;;;;;;;;;;-0.40;99.90;;;;;;5050277;28;20056;-77
2023/01/21 02:55:25;;;;;;;44.92;19.10;;;-0.40;99.90;;;;;;5051901;28;19982;-78
2023/01/21 02:58:17;;;;;;;60.40;22.98;;;-0.40;99.90;;;;;;5050695;28;20400;-78
2023/01/21 03:01:40;;;;;;;57.47;24.73;;;-0.30;99.90;;;;;;5051433;28;20493;-80
2023/01/21 03:05:11;;;;;;;65.70;24.33;;;-0.20;99.90;;;;;;5054995;28;20049;-78
2023/01/21 03:08:30;;;;;;;66.53;25.85;;;-0.10;99.90;;;;;;5013588;28;20053;-78
2023/01/21 03:11:18;;;;;;;69.03;25.77;;;-0.20;99.90;;;;;;5037048;28;20057;-79
2023/01/21 03:17:42;;;;;;;70.03;26.23;;;-0.10;99.90;;;;;;5051939;28;20480;-84
2023/01/21 03:20:37;;;;;;;77.75;28.15;;;-0.10;99.90;;;;;;5051430;28;20056;-83
2023/01/21 03:23:31;;;;;;;67.28;27.10;;;-0.10;99.90;;;;;;5053539;28;20052;-84
2023/01/21 03:26:41;;;;;;;65.07;25.58;;;-0.20;99.90;;;;;;5054824;28;20053;-78
2023/01/21 03:29:29;;;;;;;65.68;26.60;;;-0.20;99.90;;;;;;5050571;28;20053;-83
2023/01/21 03:32:19;;;;;;;63.30;27.02;;;-0.30;99.90;;;;;;5033205;28;20401;-79
2023/01/21 03:35:07;;;;;;;54.00;23.60;;;-0.40;99.90;;;;;;5050951;28;20049;-79
2023/01/21 03:38:37;;;;;;;56.28;23.00;;;-0.40;99.90;;;;;;5050550;28;21039;-78
2023/01/21 03:41:32;;;;;;;48.05;22.17;;;-0.40;99.90;;;;;;5045626;28;20395;-80
2023/01/21 03:44:18;;;;;;;53.13;22.23;;;-0.50;99.90;;;;;;5051767;28;20045;-78
2023/01/21 03:47:30;;;;;;;54.30;23.73;;;-0.50;99.90;;;;;;5056247;28;20078;-77
2023/01/21 03:50:24;;;;;;;64.28;25.20;;;-0.60;99.90;;;;;;5048977;28;20056;-78
2023/01/21 03:53:10;;;;;;;59.15;23.10;;;-0.60;99.90;;;;;;5049137;28;20055;-79
2023/01/21 03:55:58;;;;;;;64.57;26.20;;;-0.60;99.90;;;;;;5050694;28;20099;-78
2023/01/21 03:58:44;;;;;;;55.88;24.50;;;-0.60;99.90;;;;;;5031845;28;20191;-79
2023/01/21 04:01:30;;;;;;;66.05;24.48;;;-0.60;99.90;;;;;;5050739;28;20041;-79
2023/01/21 04:04:16;;;;;;;60.45;24.48;;;-0.60;99.90;;;;;;5051197;28;20044;-79
2023/01/21 04:07:03;;;;;;;69.68;25.83;;;-0.60;99.90;;;;;;5036022;28;20496;-78
2023/01/21 04:09:49;;;;;;;70.43;26.77;;;-0.50;99.90;;;;;;5050434;28;20049;-78
2023/01/21 04:12:35;;;;;;;62.42;25.80;;;-0.50;99.90;;;;;;5049353;28;20052;-79
2023/01/21 04:15:21;;;;;;;73.32;26.42;;;-0.40;99.90;;;;;;5048737;28;20048;-79
2023/01/21 04:18:07;;;;;;;65.50;28.58;;;-0.40;99.90;;;;;;5032727;28;20155;-78
2023/01/21 04:20:53;;;;;;;69.03;25.45;;;-0.30;99.90;;;;;;5054965;28;20049;-78
2023/01/21 04:23:39;;;;;;;65.28;27.45;;;-0.20;99.90;;;;;;5058340;28;20549;-79
2023/01/21 04:26:25;;;;;;;69.25;27.63;;;-0.20;99.90;;;;;;5052799;28;20053;-78
2023/01/21 04:29:11;;;;;;;63.47;25.35;;;-0.20;99.90;;;;;;5053438;28;20149;-78
2023/01/21 04:31:57;;;;;;;61.47;25.35;;;-0.30;99.90;;;;;;5052971;28;20049;-82
2023/01/21 04:34:43;;;;;;;62.00;25.55;;;-0.30;99.90;;;;;;5053105;28;20041;-77
2023/01/21 04:37:29;;;;;;;67.75;25.92;;;-0.40;99.90;;;;;;5052478;28;20044;-78
2023/01/21 04:40:15;;;;;;;58.47;22.73;;;-0.50;99.90;;;;;;5056032;28;20049;-84
2023/01/21 04:43:01;;;;;;;59.13;24.90;;;-0.50;99.90;;;;;;5037794;28;20057;-80
2023/01/21 04:45:49;;;;;;;49.47;22.23;;;-0.60;99.90;;;;;;5052888;28;20056;-78
2023/01/21 04:48:35;;;;;;;56.20;22.88;;;-0.70;99.90;;;;;;5038306;28;20049;-78
2023/01/21 04:51:20;;;;;;;58.17;23.05;;;-0.70;99.90;;;;;;5052499;28;20060;-79
2023/01/21 04:54:09;;;;;;;53.80;23.05;;;-0.70;99.90;;;;;;5052049;28;20053;-78
2023/01/21 04:56:55;;;;;;;62.03;25.17;;;-0.80;99.90;;;;;;5052625;28;20056;-79
2023/01/21 04:59:41;;;;;;;53.20;23.25;;;-0.90;99.90;;;;;;5058204;28;20130;-80
2023/01/21 05:02:27;;;;;;;58.58;22.52;;;-0.90;99.90;;;;;;5053050;28;20049;-78
2023/01/21 05:05:13;;;;;;;58.00;23.73;;;-0.90;99.90;;;;;;5053711;28;20057;-78
2023/01/21 05:07:59;;;;;;;59.10;25.60;;;-0.90;99.90;;;;;;5052727;28;20483;-78
2023/01/21 05:10:46;;;;;;;58.30;23.88;;;-0.90;99.90;;;;;;5052387;28;20127;-84
2023/01/21 05:13:32;;;;;;;57.13;23.50;;;-0.90;99.90;;;;;;5034330;28;20049;-79
2023/01/21 05:16:18;;;;;;;57.65;25.35;;;-0.90;99.90;;;;;;5051984;28;20060;-82
2023/01/21 05:19:04;;;;;;;49.85;22.55;;;-0.80;99.90;;;;;;5057917;28;20052;-81
2023/01/21 05:21:50;;;;;;;53.33;22.55;;;-0.80;99.90;;;;;;5052829;28;20056;-80
2023/01/21 05:24:36;;;;;;;58.22;24.20;;;-0.80;99.90;;;;;;5051445;28;20095;-77
2023/01/21 05:27:22;;;;;;;63.85;23.02;;;-0.80;99.90;;;;;;5052103;28;20048;-77
2023/01/21 05:30:09;;;;;;;63.13;24.50;;;-0.80;99.90;;;;;;5052509;28;20049;-79
2023/01/21 05:32:55;;;;;;;57.92;22.90;;;-0.80;99.90;;;;;;5039077;28;20056;-80
2023/01/21 05:35:41;;;;;;;65.93;25.95;;;-0.80;99.90;;;;;;5038476;28;20458;-81
2023/01/21 05:38:28;;;;;;;63.72;24.42;;;-0.80;99.90;;;;;;5057002;28;20057;-79
2023/01/21 05:41:14;;;;;;;66.28;23.60;;;-0.70;99.90;;;;;;5052209;28;20139;-80
2023/01/21 05:44:00;;;;;;;73.78;28.42;;;-0.70;99.90;;;;;;5024016;28;20131;-78
2023/01/21 05:46:46;;;;;;;70.75;28.08;;;-0.70;99.90;;;;;;5051967;28;20134;-78
2023/01/21 05:49:32;;;;;;;61.17;26.08;;;-0.70;99.90;;;;;;5051190;28;20052;-78
2023/01/21 05:52:18;;;;;;;71.78;27.92;;;-0.70;99.90;;;;;;5052247;28;20045;-78
2023/01/21 05:55:05;;;;;;;63.75;26.70;;;-0.70;99.90;;;;;;5054227;28;20049;-79
2023/01/21 05:57:51;;;;;;;69.88;27.80;;;-0.70;99.90;;;;;;5055077;28;20135;-78
2023/01/21 06:00:37;;;;;;;72.68;29.63;;;-0.70;99.90;;;;;;5053170;28;20057;-79
2023/01/21 06:03:24;;;;;;;66.13;26.25;;;-0.70;99.90;;;;;;5052740;28;20512;-78
2023/01/21 06:06:10;;;;;;;59.53;25.60;;;-0.80;99.90;;;;;;5037388;28;20144;-79
2023/01/21 06:08:56;;;;;;;67.60;25.85;;;-0.80;99.90;;;;;;5052289;28;20067;-79
2023/01/21 06:11:42;;;;;;;61.25;25.70;;;-0.80;99.90;;;;;;5051162;28;20519;-79
2023/01/21 06:14:28;;;;;;;53.40;23.52;;;-0.90;99.90;;;;;;5055478;28;20049;-78
2023/01/21 06:17:14;;;;;;;57.55;24.38;;;-0.90;99.90;;;;;;5057725;28;20049;-79
2023/01/21 06:20:00;;;;;;;71.65;27.65;;;-1.00;99.90;;;;;;5052216;28;20049;-80
2023/01/21 06:22:46;;;;;;;71.78;27.58;;;-1.00;99.90;;;;;;5033483;28;20079;-79
2023/01/21 06:25:33;;;;;;;61.70;25.65;;;-1.10;99.90;;;;;;5034706;28;20559;-79
2023/01/21 06:28:19;;;;;;;71.38;28.08;;;-1.10;99.90;;;;;;5050646;28;20405;-79
2023/01/21 06:31:05;;;;;;;75.03;29.48;;;-1.20;99.90;;;;;;5051956;28;20052;-77
2023/01/21 06:33:51;;;;;;;60.75;25.98;;;-1.20;99.90;;;;;;5051312;28;20055;-84
2023/01/21 06:36:39;;;;;;;70.45;25.70;;;-1.20;99.90;;;;;;5041192;28;20052;-78
2023/01/21 06:39:25;;;;;;;70.38;27.15;;;-1.20;99.90;;;;;;5050986;28;20553;-81
2023/01/21 06:42:11;;;;;;;65.10;26.08;;;-1.20;99.90;;;;;;5050048;28;20436;-79
2023/01/21 06:44:58;;;;;;;69.50;25.55;;;-1.30;99.90;;;;;;5051771;28;20052;-78
2023/01/21 06:47:45;;;;;;;59.45;25.85;;;-1.40;99.90;;;;;;5051472;28;20429;-79
2023/01/21 06:50:31;;;;;;;60.03;24.30;;;-1.40;99.90;;;;;;5049942;28;20049;-80
2023/01/21 06:53:17;;;;;;;53.10;23.40;;;-1.50;99.90;;;;;;5034848;28;20568;-78
2023/01/21 06:56:03;;;;;;;60.33;24.67;;;-1.50;99.90;;;;;;5052926;28;20147;-77
2023/01/21 06:58:49;;;;;;;53.75;22.48;;;-1.60;99.90;;;;;;5051368;28;20040;-82
2023/01/21 07:01:35;;;;;;;63.67;24.73;;;-1.60;99.90;;;;;;5050802;28;20213;-82
2023/01/21 07:04:21;;;;;;;62.42;23.55;;;-1.60;99.90;;;;;;5050408;28;20185;-82
2023/01/21 07:07:07;;;;;;;65.97;25.75;;;-1.70;99.90;;;;;;5050312;28;20057;-78
2023/01/21 07:09:53;;;;;;;70.35;27.52;;;-1.60;99.90;;;;;;5051270;28;20084;-79
2023/01/21 07:12:39;;;;;;;58.78;24.10;;;-1.60;99.90;;;;;;5033468;28;20084;-77
2023/01/21 07:15:29;;;;;;;58.25;23.90;;;-1.60;99.90;;;;;;5058769;28;20049;-83
2023/01/21 07:18:15;;;;;;;61.53;24.85;;;-1.50;99.90;;;;;;5051353;28;20099;-78
2023/01/21 07:21:01;;;;;;;65.03;26.08;;;-1.50;99.90;;;;;;5050010;28;20111;-78
2023/01/21 07:23:50;;;;;;;63.58;26.40;;;-1.50;99.90;;;;;;5050840;28;20477;-78
2023/01/21 07:26:37;;;;;;;69.95;26.45;;;-1.40;99.90;;;;;;5051005;28;20131;-83
2023/01/21 07:29:23;;;;;;;61.15;24.90;;;-1.40;99.90;;;;;;5049622;28;20509;-79
2023/01/21 07:32:09;;;;;;;64.15;26.05;;;-1.40;99.90;;;;;;5050497;28;20053;-80
2023/01/21 07:34:55;;;;;;;70.10;27.08;;;-1.40;99.90;;;;;;5050890;28;20107;-84
2023/01/21 07:37:41;;;;;;;79.25;28.08;;;-1.40;99.90;;;;;;5043105;28;20047;-80
2023/01/21 07:40:27;;;;;;;74.40;30.42;;;-1.30;99.90;;;;;;5050046;28;20053;-78
2023/01/21 07:43:15;;;;;;;64.72;26.05;;;-1.30;99.90;;;;;;5050907;28;20068;-77
2023/01/21 07:46:01;;;;;;;74.53;30.38;;;-1.20;99.90;;;;;;5050665;28;20052;-79
2023/01/21 07:48:49;;;;;;;67.20;26.70;;;-1.10;99.90;;;;;;5050519;28;20439;-78
2023/01/21 07:51:36;;;;;;;72.32;27.38;;;-1.00;99.90;;;;;;5049147;28;20412;-81
2023/01/21 07:54:22;;;;;;;87.45;30.00;;;-1.00;99.90;;;;;;5031772;28;20139;-81
2023/01/21 07:57:08;;;;;;;75.70;28.60;;;-0.90;99.90;;;;;;5054472;28;20079;-78
2023/01/21 07:59:54;;;;;;;82.22;30.15;;;-0.80;99.90;;;;;;5049976;28;20080;-79
2023/01/21 08:02:40;;;;;;;82.32;31.60;;;-0.70;99.90;;;;;;5050657;28;20052;-79
2023/01/21 08:05:26;;;;;;;73.70;26.95;;;-0.60;99.90;;;;;;5049702;28;20132;-83
2023/01/21 08:08:13;;;;;;;85.07;32.50;;;-0.60;99.90;;;;;;5048921;28;20132;-79
2023/01/21 08:10:59;;;;;;;95.15;32.65;;;-0.50;99.90;;;;;;5050495;28;20060;-79
2023/01/21 08:13:45;;;;;;;78.45;30.27;;;-0.40;99.90;;;;;;5050422;28;20048;-78
2023/01/21 08:16:31;;;;;;;77.65;30.02;;;-0.40;99.90;;;;;;5058696;28;20053;-82
2023/01/21 08:19:17;;;;;;;77.03;30.23;;;-0.30;99.90;;;;;;5048609;28;20057;-78
2023/01/21 08:22:03;;;;;;;78.13;29.20;;;-0.30;99.90;;;;;;5048921;28;20044;-80
2023/01/21 08:24:51;;;;;;;75.05;29.02;;;-0.30;99.90;;;;;;5048529;28;20048;-79
2023/01/21 08:27:37;;;;;;;71.43;28.00;;;-0.30;99.90;;;;;;5050163;28;20595;-80
2023/01/21 08:30:23;;;;;;;80.20;30.50;;;-0.30;99.90;;;;;;5049170;28;20064;-83
2023/01/21 08:33:09;;;;;;;82.25;29.92;;;-0.30;99.90;;;;;;5050273;28;20041;-79
2023/01/21 08:36:02;;;;;;;73.43;28.80;;;-0.30;99.90;;;;;;5050978;28;20045;-78
2023/01/21 08:38:52;;;;;;;68.78;25.75;;;-0.20;99.90;;;;;;5051714;28;20049;-83
2023/01/21 08:41:42;;;;;;;80.90;28.48;;;-0.10;99.90;;;;;;5031642;28;20053;-80
2023/01/21 08:44:29;;;;;;;65.78;27.55;;;-0.10;99.90;;;;;;5048913;28;20045;-81
2023/01/21 08:47:15;;;;;;;85.53;32.42;;;0.10;99.90;;;;;;5048318;28;20422;-79
2023/01/21 08:50:02;;;;;;;79.78;31.25;;;0.30;99.90;;;;;;5021520;28;20084;-79
2023/01/21 08:52:52;;;;;;;83.40;31.27;;;0.50;99.90;;;;;;5049953;28;20512;-84
2023/01/21 08:55:38;;;;;;;81.20;30.80;;;0.60;99.90;;;;;;5037408;28;20052;-82
2023/01/21 08:58:25;;;;;;;91.50;34.80;;;0.80;99.90;;;;;;5050290;28;20073;-81
2023/01/21 09:01:14;;;;;;;99.50;34.33;;;1.10;99.90;;;;;;5050392;28;20080;-83
2023/01/21 09:04:00;;;;;;;98.72;34.72;;;1.40;99.90;;;;;;5050517;28;20049;-82
2023/01/21 09:06:46;;;;;;;88.10;31.50;;;1.50;99.90;;;;;;5053622;28;20064;-84
2023/01/21 09:09:32;;;;;;;86.03;32.83;;;1.70;99.90;;;;;;5054422;28;20041;-83
2023/01/21 09:12:18;;;;;;;81.47;31.40;;;1.90;99.90;;;;;;5036127;28;20059;-84
2023/01/21 09:15:05;;;;;;;75.78;32.20;;;2.00;99.90;;;;;;5053718;28;20048;-85
2023/01/21 09:17:51;;;;;;;79.68;32.28;;;2.20;99.90;;;;;;5036279;28;20060;-84
2023/01/21 09:20:38;;;;;;;76.32;30.92;;;2.40;99.90;;;;;;5053052;28;20148;-80
2023/01/21 09:23:24;;;;;;;60.95;26.15;;;2.60;99.90;;;;;;5022016;28;20173;-78
2023/01/21 09:26:22;;;;;;;65.63;27.75;;;2.70;99.90;;;;;;5020803;28;20053;-77
2023/01/21 09:29:08;;;;;;;57.45;25.65;;;2.90;99.90;;;;;;5055086;28;20055;-81
2023/01/21 09:31:54;;;;;;;46.90;21.25;;;3.10;99.90;;;;;;5059524;28;20045;-76
2023/01/21 09:34:41;;;;;;;43.80;21.45;;;3.20;99.90;;;;;;5059043;28;20056;-80
2023/01/21 09:37:27;;;;;;;48.63;22.23;;;3.20;99.90;;;;;;5059030;28;20526;-80
2023/01/21 09:40:15;;;;;;;52.05;22.67;;;3.50;99.90;;;;;;5054250;28;20057;-81
2023/01/21 09:43:10;;;;;;;49.92;21.67;;;3.70;99.90;;;;;;5037738;28;20057;-79
2023/01/21 09:46:01;;;;;;;49.65;21.33;;;3.80;99.90;;;;;;5039471;28;20045;-78
2023/01/21 09:48:48;;;;;;;48.10;22.95;;;4.10;99.90;;;;;;5035607;28;20044;-80
2023/01/21 09:51:47;;;;;;;37.25;16.95;;;4.20;99.90;;;;;;5052770;28;20045;-78
2023/01/21 09:54:36;;;;;;;39.40;17.50;;;4.40;99.90;;;;;;5052870;28;20045;-80
2023/01/21 09:57:27;;;;;;;30.90;14.48;;;4.60;99.90;;;;;;5052479;28;20053;-80
2023/01/21 10:00:35;;;;;;;28.75;13.70;;;4.60;99.90;;;;;;5051546;28;20474;-83
2023/01/21 10:03:33;;;;;;;28.83;14.30;;;4.70;99.90;;;;;;5053150;28;20405;-81
2023/01/21 10:06:28;;;;;;;29.27;15.25;;;4.80;99.90;;;;;;5051622;28;20139;-82
2023/01/21 10:09:35;;;;;;;22.13;10.65;;;4.90;99.90;;;;;;5053027;28;20420;-82
2023/01/21 10:12:29;;;;;;;22.63;12.25;;;5.00;99.90;;;;;;5051613;28;20044;-82
2023/01/21 10:15:36;;;;;;;23.08;11.38;;;5.20;99.90;;;;;;5052337;28;20132;-79
2023/01/21 10:18:27;;;;;;;20.00;9.75;;;5.30;99.90;;;;;;5037003;28;20056;-80
2023/01/21 10:21:44;;;;;;;16.13;8.88;;;5.50;99.90;;;;;;5033986;28;20400;-80
2023/01/21 10:24:37;;;;;;;14.60;7.93;;;5.60;99.90;;;;;;5051550;28;20068;-79
2023/01/21 10:27:25;;;;;;;14.77;7.85;;;5.80;99.90;;;;;;5052305;28;20049;-83
2023/01/21 10:30:25;;;;;;;16.88;8.48;;;6.00;99.90;;;;;;5054625;28;20547;-79
2023/01/21 10:33:20;;;;;;;14.20;8.60;;;6.40;99.90;;;;;;5057470;28;20049;-82
2023/01/21 10:36:24;;;;;;;16.55;8.07;;;6.60;99.90;;;;;;5052884;28;20044;-82
2023/01/21 10:39:34;;;;;;;16.70;8.50;;;6.80;99.90;;;;;;5034385;28;20139;-85
2023/01/21 10:42:41;;;;;;;15.40;9.15;;;7.00;99.90;;;;;;5052469;28;20534;-83
2023/01/21 10:45:51;;;;;;;13.82;7.47;;;7.40;99.90;;;;;;5051127;28;20052;-83
2023/01/21 10:49:10;;;;;;;13.93;6.82;;;7.60;99.90;;;;;;5051809;28;20086;-82
2023/01/21 10:52:05;;;;;;;12.98;6.10;;;7.60;99.90;;;;;;5033509;28;20045;-80
2023/01/21 10:55:16;;;;;;;15.57;7.85;;;7.80;99.90;;;;;;5037245;28;20048;-80
2023/01/21 10:58:18;;;;;;;10.00;5.80;;;7.60;99.90;;;;;;5052573;28;20049;-81
2023/01/21 11:01:13;;;;;;;11.93;6.35;;;7.60;99.90;;;;;;5052321;28;20037;-78
2023/01/21 11:04:13;;;;;;;11.77;6.50;;;8.00;99.90;;;;;;5052834;28;20045;-80
2023/01/21 11:07:05;;;;;;;15.93;6.18;;;8.70;99.90;;;;;;5052843;28;20479;-82
2023/01/21 11:09:51;;;;;;;7.93;4.47;;;9.10;99.90;;;;;;5052303;28;20481;-81
2023/01/21 11:12:38;;;;;;;11.93;4.35;;;9.50;99.90;;;;;;5052325;28;20060;-77
2023/01/21 11:15:25;;;;;;;8.98;5.13;;;9.70;99.90;;;;;;5052419;28;20174;-79
2023/01/21 11:18:28;;;;;;;7.65;4.18;;;9.70;99.90;;;;;;5005677;28;20162;-77
2023/01/21 11:21:22;;;;;;;9.45;5.28;;;9.80;99.90;;;;;;5051920;28;20729;-78
2023/01/21 11:24:23;;;;;;;9.57;4.72;;;10.20;99.90;;;;;;5037150;28;20041;-77
2023/01/21 11:27:21;;;;;;;9.80;4.63;;;10.40;99.90;;;;;;5036313;28;20512;-83
2023/01/21 11:30:28;;;;;;;7.03;3.95;;;10.40;99.90;;;;;;5050355;28;20892;-78
2023/01/21 11:33:22;;;;;;;7.38;3.55;;;10.00;99.90;;;;;;5036183;28;20045;-80
2023/01/21 11:36:12;;;;;;;5.35;3.10;;;10.10;99.90;;;;;;5051075;28;20041;-81
2023/01/21 11:39:02;;;;;;;5.20;2.70;;;10.40;99.90;;;;;;5051903;28;20048;-77
2023/01/21 11:42:13;;;;;;;5.05;2.55;;;10.80;99.90;;;;;;5053963;28;20479;-83
2023/01/21 11:45:03;;;;;;;6.10;2.67;;;10.90;99.90;;;;;;5057683;28;20053;-83
2023/01/21 11:47:50;;;;;;;5.05;2.67;;;11.40;99.90;;;;;;5055525;28;20041;-79
2023/01/21 11:50:36;;;;;;;4.82;2.53;;;11.60;99.90;;;;;;5053398;28;20040;-80
2023/01/21 11:53:22;;;;;;;5.63;2.65;;;12.10;99.90;;;;;;5051451;28;20480;-77
2023/01/21 11:56:09;;;;;;;6.03;2.45;;;12.90;99.90;;;;;;5050893;28;20428;-79
2023/01/21 11:58:55;;;;;;;5.10;2.63;;;13.70;99.00;;;;;;5050572;28;20053;-80
2023/01/21 12:01:54;;;;;;;4.82;2.33;;;14.30;97.40;;;;;;5050711;28;20102;-81
2023/01/21 12:04:57;;;;;;;5.18;2.47;;;14.80;95.60;;;;;;5036739;28;20614;-81
2023/01/21 12:07:48;;;;;;;5.13;2.38;;;15.20;94.40;;;;;;5050937;28;20448;-83
2023/01/21 12:10:37;;;;;;;4.45;1.83;;;16.00;93.50;;;;;;5049467;28;20045;-83
2023/01/21 12:13:45;;;;;;;7.00;2.10;;;16.30;92.50;;;;;;5050892;28;20485;-82
2023/01/21 12:16:39;;;;;;;5.18;2.15;;;16.70;91.30;;;;;;5051400;28;20048;-82
2023/01/21 12:19:40;;;;;;;5.97;2.25;;;16.00;89.70;;;;;;5052073;28;20056;-80
2023/01/21 12:22:46;;;;;;;6.70;3.00;;;15.00;91.00;;;;;;5049457;28;20505;-79
2023/01/21 12:25:59;;;;;;;7.25;3.97;;;14.40;94.20;;;;;;5032204;28;20520;-80
2023/01/21 12:29:04;;;;;;;5.63;2.72;;;14.60;91.60;;;;;;5049787;28;20053;-80
2023/01/21 12:32:09;;;;;;;4.70;2.50;;;15.50;91.30;;;;;;5051637;28;20067;-79
2023/01/21 12:35:04;;;;;;;5.85;2.30;;;15.90;85.50;;;;;;5051549;28;20393;-84
2023/01/21 12:37:59;;;;;;;4.73;2.20;;;15.00;90.20;;;;;;5052033;28;20049;-79
2023/01/21 12:41:03;;;;;;;7.72;2.30;;;14.40;91.70;;;;;;5056837;28;20775;-81
2023/01/21 12:43:55;;;;;;;4.32;2.13;;;14.70;91.00;;;;;;5054270;28;20539;-80
2023/01/21 12:46:46;;;;;;;5.15;2.72;;;14.00;92.10;;;;;;5039146;28;20054;-79
2023/01/21 12:49:51;;;;;;;6.53;2.55;;;13.20;92.40;;;;;;5055448;28;20052;-79
2023/01/21 12:52:44;;;;;;;5.78;3.22;;;12.50;93.50;;;;;;5055239;28;20076;-78
2023/01/21 12:55:36;;;;;;;5.32;2.55;;;12.10;95.00;;;;;;5054928;28;20056;-79
2023/01/21 12:58:25;;;;;;;4.80;2.40;;;11.50;95.00;;;;;;5053209;28;20138;-78
2023/01/21 13:01:18;;;;;;;4.90;2.65;;;11.10;97.20;;;;;;5054485;28;20397;-80
2023/01/21 13:04:20;;;;;;;5.57;2.58;;;10.60;97.30;;;;;;5054856;28;20056;-78
2023/01/21 13:07:09;;;;;;;4.13;2.22;;;10.30;97.40;;;;;;5054781;28;20049;-80
2023/01/21 13:10:00;;;;;;;6.72;3.00;;;9.80;98.50;;;;;;5053251;28;20056;-79
2023/01/21 13:13:10;;;;;;;4.68;2.55;;;9.50;99.50;;;;;;5053195;28;20059;-78
2023/01/21 13:16:01;;;;;;;6.07;2.33;;;9.10;99.90;;;;;;5058348;28;20080;-78
2023/01/21 13:18:51;;;;;;;4.07;2.28;;;8.80;99.90;;;;;;5023426;28;20087;-82
2023/01/21 13:22:12;;;;;;;4.22;2.38;;;8.80;99.90;;;;;;5038538;28;20087;-79
2023/01/21 13:25:10;;;;;;;5.65;2.47;;;8.70;99.90;;;;;;5055612;28;20045;-78
2023/01/21 13:28:20;;;;;;;5.50;2.55;;;9.40;99.90;;;;;;5054734;28;20057;-80
2023/01/21 13:31:17;;;;;;;5.03;2.30;;;9.50;99.90;;;;;;5054503;28;20056;-80
2023/01/21 13:34:24;;;;;;;3.67;1.92;;;10.50;99.50;;;;;;5052455;28;20052;-80
2023/01/21 13:37:49;;;;;;;4.82;2.20;;;11.10;97.30;;;;;;5034670;28;20049;-78
2023/01/21 13:41:00;;;;;;;5.85;2.67;;;11.00;97.00;;;;;;5038513;28;20492;-81
2023/01/21 13:43:58;;;;;;;4.28;2.13;;;10.60;96.70;;;;;;5038580;28;20048;-84
2023/01/21 13:47:02;;;;;;;4.40;2.50;;;10.20;98.50;;;;;;5021584;28;20127;-79
2023/01/21 13:50:28;;;;;;;6.90;2.17;;;10.00;98.30;;;;;;5053468;28;20049;-78
2023/01/21 13:53:52;;;;;;;3.97;2.13;;;10.00;98.20;;;;;;5040012;28;20450;-84
2023/01/21 13:56:52;;;;;;;4.90;2.25;;;10.20;97.20;;;;;;5016328;28;20054;-85
2023/01/21 13:59:50;;;;;;;5.07;2.08;;;10.50;98.70;;;;;;5059827;28;20542;-79
2023/01/21 14:02:46;;;;;;;3.72;1.92;;;10.90;97.80;;;;;;5055774;28;20059;-80
2023/01/21 14:05:44;;;;;;;3.72;1.75;;;11.40;96.90;;;;;;5052447;28;20064;-85
2023/01/21 14:08:48;;;;;;;4.90;2.40;;;11.70;96.50;;;;;;5053892;28;20091;-81
2023/01/21 14:11:54;;;;;;;4.30;2.20;;;11.70;94.90;;;;;;5052731;28;20061;-80
2023/01/21 14:15:14;;;;;;;5.07;2.15;;;12.10;95.50;;;;;;5035316;28;20049;-81
2023/01/21 14:18:15;;;;;;;6.40;2.67;;;11.10;94.60;;;;;;5052866;28;20168;-79
2023/01/21 14:21:51;;;;;;;5.13;2.40;;;10.50;96.00;;;;;;5051995;28;20099;-79
2023/01/21 14:24:56;;;;;;;5.10;2.85;;;10.40;96.40;;;;;;4975207;28;20054;-81
2023/01/21 14:27:52;;;;;;;4.68;2.50;;;10.80;98.70;;;;;;4991118;28;20057;-80
2023/01/21 14:30:38;;;;;;;6.70;2.22;;;11.70;97.60;;;;;;5032231;28;20513;-79
2023/01/21 14:33:35;;;;;;;4.43;2.13;;;12.70;96.60;;;;;;5031935;28;20528;-83
2023/01/21 14:37:06;;;;;;;4.68;2.00;;;13.00;94.60;;;;;;5031194;28;20564;-81
2023/01/21 14:40:24;;;;;;;6.13;2.60;;;12.60;92.80;;;;;;5020921;28;20049;-77
2023/01/21 14:43:29;;;;;;;3.88;2.03;;;12.60;93.70;;;;;;5036723;28;20054;-79
2023/01/21 14:46:21;;;;;;;4.13;2.07;;;13.10;93.50;;;;;;5030887;28;20057;-79
2023/01/21 14:49:10;;;;;;;3.40;1.70;;;13.40;93.70;;;;;;5014338;28;20053;-81